Time;durP1;ratioP1;P1;durP2;ratioP2;P2;SDS_P1;SDS_P2;PMS_P1;PMS_P2;Temp;Humidity;BMP_temperature;BMP_pressure;BME280_temperature;BME280_humidity;BME280_pressure;Samples;Min_cycle;Max_cycle;Signal;HPM_P1;HPM_P2
2021/11/05 00:00:17;;;;;;;22.23;18.47;;;;;;;6.71;100.00;100003.44;4964184;28;20206;-78
2021/11/05 00:02:45;;;;;;;19.27;17.27;;;;;;;6.78;100.00;99999.94;4968450;28;20322;-78
2021/11/05 00:05:11;;;;;;;20.37;18.20;;;;;;;6.73;100.00;100017.25;4965368;28;20215;-78
2021/11/05 00:07:37;;;;;;;19.27;17.53;;;;;;;6.76;100.00;100014.66;4969429;28;20215;-78
2021/11/05 00:10:06;;;;;;;22.53;18.73;;;;;;;6.67;100.00;100014.72;4966558;28;20217;-78
2021/11/05 00:12:32;;;;;;;22.73;19.57;;;;;;;6.69;100.00;100019.03;4969875;28;20234;-77
2021/11/05 00:14:58;;;;;;;20.30;18.47;;;;;;;6.66;100.00;100026.84;4965504;28;20748;-78
2021/11/05 00:17:25;;;;;;;19.80;17.90;;;;;;;6.63;100.00;100032.06;4970834;28;20693;-78
2021/11/05 00:19:52;;;;;;;21.50;19.43;;;;;;;6.64;100.00;100027.72;4963995;28;20210;-78
2021/11/05 00:22:19;;;;;;;27.40;20.47;;;;;;;6.61;100.00;100022.56;4971883;28;20236;-78
2021/11/05 00:24:45;;;;;;;24.23;20.73;;;;;;;6.62;100.00;100021.69;4965602;28;20245;-78
2021/11/05 00:27:11;;;;;;;25.10;22.37;;;;;;;6.59;100.00;100008.75;4966937;28;20410;-78
2021/11/05 00:29:38;;;;;;;29.57;22.40;;;;;;;6.61;100.00;100017.38;4970537;28;20685;-78
2021/11/05 00:32:05;;;;;;;29.33;22.60;;;;;;;6.63;100.00;100016.50;4968949;28;20227;-77
2021/11/05 00:34:32;;;;;;;35.43;23.57;;;;;;;6.61;100.00;100015.66;4974895;28;20258;-76
2021/11/05 00:36:59;;;;;;;31.00;23.50;;;;;;;6.63;100.00;100008.72;4968224;28;20215;-79
2021/11/05 00:39:26;;;;;;;32.80;24.37;;;;;;;6.68;100.00;100019.03;4968046;28;20278;-78
2021/11/05 00:41:52;;;;;;;32.87;24.47;;;;;;;6.64;100.00;100022.53;4968477;28;20225;-78
2021/11/05 00:44:19;;;;;;;37.03;24.93;;;;;;;6.61;100.00;100020.84;4975597;28;20219;-78
2021/11/05 00:46:45;;;;;;;35.47;25.27;;;;;;;6.63;100.00;100015.63;4968760;28;20761;-78
2021/11/05 00:49:11;;;;;;;35.77;24.93;;;;;;;6.67;100.00;100019.91;4968011;28;20228;-78
2021/11/05 00:51:38;;;;;;;38.97;26.67;;;;;;;6.64;100.00;100023.41;4968194;28;20242;-77
2021/11/05 00:54:08;;;;;;;35.47;24.17;;;;;;;6.68;100.00;100026.81;4968503;28;20215;-78
2021/11/05 00:56:34;;;;;;;33.80;25.53;;;;;;;6.64;100.00;100022.53;4969179;28;20262;-78
2021/11/05 00:59:00;;;;;;;33.20;24.50;;;;;;;6.62;100.00;100022.56;4969613;28;20216;-76
2021/11/05 01:01:27;;;;;;;38.63;26.17;;;;;;;6.63;100.00;100036.38;4973399;28;20215;-78
2021/11/05 01:03:53;;;;;;;31.57;24.30;;;;;;;6.62;100.00;100039.84;4969302;28;20235;-77
2021/11/05 01:06:20;;;;;;;32.50;23.50;;;;;;;6.66;100.00;100037.22;4972796;28;20215;-78
2021/11/05 01:08:46;;;;;;;35.57;24.60;;;;;;;6.70;100.00;100044.09;4967955;28;20212;-78
2021/11/05 01:11:14;;;;;;;33.10;23.50;;;;;;;6.68;100.00;100051.03;4968534;28;20205;-77
2021/11/05 01:13:41;;;;;;;32.63;24.10;;;;;;;6.63;100.00;100057.97;4968283;28;20236;-77
2021/11/05 01:16:08;;;;;;;33.20;25.20;;;;;;;6.59;100.00;100063.22;4968160;28;20216;-78
2021/11/05 01:18:34;;;;;;;37.70;25.23;;;;;;;6.54;100.00;100058.94;4972425;28;20215;-78
2021/11/05 01:21:01;;;;;;;35.43;24.87;;;;;;;6.61;100.00;100064.91;4969103;28;20445;-78
2021/11/05 01:23:27;;;;;;;37.90;24.30;;;;;;;6.58;100.00;100077.94;4974583;28;20254;-78
2021/11/05 01:25:54;;;;;;;35.70;24.87;;;;;;;6.60;100.00;100072.69;4970929;28;20208;-78
2021/11/05 01:28:21;;;;;;;39.07;25.23;;;;;;;6.59;100.00;100068.41;4973818;28;20382;-78
2021/11/05 01:30:48;;;;;;;37.47;25.30;;;;;;;6.65;100.00;100076.97;4971627;28;20260;-79
2021/11/05 01:33:14;;;;;;;33.77;24.57;;;;;;;6.61;100.00;100079.63;4974824;28;20231;-78
2021/11/05 01:35:42;;;;;;;38.50;25.17;;;;;;;6.60;100.00;100083.97;4968019;28;20301;-78
2021/11/05 01:38:09;;;;;;;36.53;24.93;;;;;;;6.57;100.00;100082.22;4973396;28;20208;-77
2021/11/05 01:40:37;;;;;;;42.70;26.80;;;;;;;6.59;100.00;100078.78;4977663;28;20272;-77
2021/11/05 01:43:05;;;;;;;41.80;27.40;;;;;;;6.60;100.00;100083.06;4980414;28;20243;-75
2021/11/05 01:45:34;;;;;;;45.40;26.20;;;;;;;6.64;100.00;100097.75;4971934;28;20215;-78
2021/11/05 01:48:01;;;;;;;41.20;27.20;;;;;;;6.62;100.00;100099.47;4968718;28;20273;-77
2021/11/05 01:50:28;;;;;;;35.43;24.47;;;;;;;6.66;100.00;100099.47;4973287;28;20215;-78
2021/11/05 01:52:55;;;;;;;44.23;27.70;;;;;;;6.66;100.00;100104.66;4966546;28;20243;-77
2021/11/05 01:55:22;;;;;;;38.77;25.67;;;;;;;6.71;100.00;100104.59;4973806;28;20274;-78
2021/11/05 01:57:49;;;;;;;33.87;24.87;;;;;;;6.72;100.00;100109.78;4977344;28;20214;-78
2021/11/05 02:00:18;;;;;;;43.17;26.50;;;;;;;6.78;100.00;100115.78;4966688;28;20210;-78
2021/11/05 02:02:47;;;;;;;34.97;25.10;;;;;;;6.78;100.00;100126.16;4966449;28;20309;-77
2021/11/05 02:05:14;;;;;;;33.03;23.53;;;;;;;6.79;100.00;100135.66;4966834;28;20268;-77
2021/11/05 02:07:45;;;;;;;34.77;24.20;;;;;;;6.88;100.00;100148.56;4970993;28;20215;-77
2021/11/05 02:10:12;;;;;;;31.03;24.00;;;;;;;6.88;100.00;100156.34;4968108;28;20378;-77
2021/11/05 02:12:39;;;;;;;32.80;24.33;;;;;;;6.83;100.00;100158.97;4972967;28;20231;-78
2021/11/05 02:15:07;;;;;;;34.57;24.63;;;;;;;6.71;100.00;100165.13;4975603;28;20212;-79
2021/11/05 02:17:35;;;;;;;41.87;26.80;;;;;;;6.64;100.00;100163.47;4967149;28;20307;-77
2021/11/05 02:20:06;;;;;;;40.97;25.87;;;;;;;6.68;100.00;100162.56;4968472;28;20219;-78
2021/11/05 02:22:34;;;;;;;33.60;24.93;;;;;;;6.70;100.00;100166.00;4974202;28;20238;-78
2021/11/05 02:25:00;;;;;;;40.07;27.03;;;;;;;6.69;100.00;100173.78;4976930;28;20244;-77
2021/11/05 02:27:29;;;;;;;42.00;26.03;;;;;;;6.66;100.00;100169.50;4969399;28;20240;-78
2021/11/05 02:29:56;;;;;;;39.87;25.83;;;;;;;6.65;100.00;100177.28;4967864;28;20212;-77
2021/11/05 02:32:22;;;;;;;38.40;25.87;;;;;;;6.66;100.00;100184.16;4973368;28;20238;-78
2021/11/05 02:34:49;;;;;;;40.30;26.93;;;;;;;6.73;100.00;100183.25;4966864;28;20999;-78
2021/11/05 02:37:20;;;;;;;43.27;26.80;;;;;;;6.64;100.00;100193.69;4966419;28;20222;-77
2021/11/05 02:39:48;;;;;;;40.50;26.83;;;;;;;6.77;100.00;100200.53;4968255;28;20256;-77
2021/11/05 02:42:14;;;;;;;39.07;26.73;;;;;;;6.71;100.00;100198.84;4966640;28;20227;-77
2021/11/05 02:44:41;;;;;;;39.47;25.93;;;;;;;6.81;100.00;100201.38;4966336;28;20216;-78
2021/11/05 02:47:15;;;;;;;40.63;26.33;;;;;;;6.87;100.00;100211.69;4974536;28;20479;-77
2021/11/05 02:49:42;;;;;;;39.43;27.50;;;;;;;6.70;100.00;100214.41;4969399;28;20285;-78
2021/11/05 02:52:08;;;;;;;42.57;26.77;;;;;;;6.70;100.00;100223.06;4966536;28;20494;-77
2021/11/05 02:54:35;;;;;;;44.47;27.23;;;;;;;6.80;100.00;100221.28;4970804;28;20212;-78
2021/11/05 02:57:03;;;;;;;40.43;28.10;;;;;;;6.72;100.00;100220.47;4968884;28;20209;-77
2021/11/05 02:59:29;;;;;;;40.63;25.93;;;;;;;6.68;100.00;100223.91;4966031;28;20281;-77
2021/11/05 03:01:56;;;;;;;39.67;25.27;;;;;;;6.70;100.00;100224.78;4967912;28;20247;-77
2021/11/05 03:04:23;;;;;;;38.97;26.30;;;;;;;6.66;100.00;100228.25;4966192;28;20625;-78
2021/11/05 03:06:50;;;;;;;44.23;26.63;;;;;;;6.64;100.00;100225.69;4967670;28;20769;-77
2021/11/05 03:09:18;;;;;;;40.63;26.83;;;;;;;6.71;100.00;100235.16;4966645;28;20308;-77
2021/11/05 03:11:47;;;;;;;42.50;26.37;;;;;;;6.69;100.00;100234.28;4967771;28;20269;-77
2021/11/05 03:14:15;;;;;;;42.73;26.07;;;;;;;6.69;100.00;100236.88;4967406;28;20415;-78
2021/11/05 03:16:41;;;;;;;46.03;26.97;;;;;;;6.78;100.00;100235.09;4967650;28;20282;-78
2021/11/05 03:19:09;;;;;;;40.17;26.67;;;;;;;6.67;100.00;100238.63;4966941;28;21053;-78
2021/11/05 03:21:35;;;;;;;48.77;28.27;;;;;;;6.64;100.00;100249.03;4966919;28;20378;-76
2021/11/05 03:24:02;;;;;;;45.23;27.00;;;;;;;6.65;100.00;100252.50;4965637;28;20291;-78
2021/11/05 03:26:28;;;;;;;53.30;28.30;;;;;;;6.61;100.00;100261.16;4967258;28;20209;-78
2021/11/05 03:28:55;;;;;;;50.23;28.20;;;;;;;6.63;100.00;100259.41;4969929;28;20660;-77
2021/11/05 03:31:22;;;;;;;46.27;27.53;;;;;;;6.59;100.00;100266.34;4966483;28;20281;-78
2021/11/05 03:33:49;;;;;;;55.60;28.33;;;;;;;6.57;100.00;100271.53;4968727;28;20200;-77
2021/11/05 03:36:15;;;;;;;53.07;27.70;;;;;;;6.46;100.00;100267.28;4966461;28;20748;-77
2021/11/05 03:38:42;;;;;;;59.07;29.87;;;;;;;6.42;100.00;100265.56;4965140;28;20689;-77
2021/11/05 03:41:08;;;;;;;58.23;29.27;;;;;;;6.41;100.00;100271.63;4965592;28;20256;-77
2021/11/05 03:43:35;;;;;;;50.13;28.73;;;;;;;6.44;100.00;100276.78;4968991;28;20229;-78
2021/11/05 03:46:03;;;;;;;57.27;28.37;;;;;;;6.46;100.00;100275.94;4965877;28;20301;-78
2021/11/05 03:48:35;;;;;;;51.53;28.00;;;;;;;6.44;100.00;100280.28;4967969;28;20614;-78
2021/11/05 03:51:01;;;;;;;52.17;27.93;;;;;;;6.41;100.00;100282.84;4966607;28;20234;-78
2021/11/05 03:53:28;;;;;;;53.30;28.47;;;;;;;6.42;100.00;100284.59;4967692;28;20233;-77
2021/11/05 03:55:54;;;;;;;57.73;28.37;;;;;;;6.47;100.00;100288.00;4967169;28;20206;-77
2021/11/05 03:58:20;;;;;;;53.57;28.03;;;;;;;6.49;100.00;100296.66;4966083;28;20219;-78
2021/11/05 04:00:47;;;;;;;49.30;26.87;;;;;;;6.59;100.00;100299.22;4963832;28;20270;-78
2021/11/05 04:03:13;;;;;;;49.73;26.60;;;;;;;6.56;100.00;100313.03;4965153;28;20264;-78
2021/11/05 04:05:41;;;;;;;41.90;26.37;;;;;;;6.66;100.00;100319.91;4971003;28;20247;-77
2021/11/05 04:08:07;;;;;;;42.33;24.17;;;;;;;6.59;100.00;100331.19;4968378;28;20211;-76
2021/11/05 04:10:34;;;;;;;41.97;24.30;;;;;;;6.57;100.00;100341.56;4973519;28;20222;-77
2021/11/05 04:13:01;;;;;;;41.90;25.87;;;;;;;6.53;100.00;100346.78;4968552;28;20268;-78
2021/11/05 04:15:27;;;;;;;51.13;26.87;;;;;;;6.52;100.00;100355.41;4975300;28;20290;-78
2021/11/05 04:17:54;;;;;;;45.20;24.93;;;;;;;6.51;100.00;100356.28;4971063;28;20297;-78
2021/11/05 04:20:20;;;;;;;46.00;25.60;;;;;;;6.52;100.00;100355.41;4968304;28;20220;-78
2021/11/05 04:22:48;;;;;;;35.73;24.83;;;;;;;6.53;100.00;100363.19;4971933;28;20240;-78
2021/11/05 04:25:15;;;;;;;44.50;26.63;;;;;;;6.52;100.00;100369.25;4968392;28;20215;-78
2021/11/05 04:27:41;;;;;;;51.20;26.53;;;;;;;6.51;100.00;100366.66;4975653;28;20650;-77
2021/11/05 04:30:10;;;;;;;45.80;26.80;;;;;;;6.61;100.00;100373.53;4968163;28;20215;-78
2021/11/05 04:32:37;;;;;;;45.60;26.97;;;;;;;6.68;100.00;100376.94;4969750;28;20394;-78
2021/11/05 04:35:04;;;;;;;37.00;24.63;;;;;;;6.68;100.00;100398.59;4969383;28;20215;-78
2021/11/05 04:37:30;;;;;;;43.77;25.90;;;;;;;6.71;100.00;100401.16;4968069;28;20307;-77
2021/11/05 04:39:58;;;;;;;38.90;23.93;;;;;;;6.78;100.00;100411.50;4970327;28;20262;-78
2021/11/05 04:42:24;;;;;;;42.57;24.47;;;;;;;6.77;100.00;100423.63;4968489;28;20267;-78
2021/11/05 04:44:50;;;;;;;39.87;25.20;;;;;;;6.65;100.00;100434.91;4969566;28;20231;-78
2021/11/05 04:47:17;;;;;;;39.50;25.37;;;;;;;6.60;100.00;100436.66;4975134;28;20270;-77
2021/11/05 04:49:44;;;;;;;35.17;23.07;;;;;;;6.63;100.00;100444.41;4975574;28;20221;-77
2021/11/05 04:52:10;;;;;;;37.80;23.83;;;;;;;6.57;100.00;100447.03;4967780;28;20288;-77
2021/11/05 04:54:37;;;;;;;40.83;24.83;;;;;;;6.56;100.00;100433.22;4971971;28;20681;-77
2021/11/05 04:57:05;;;;;;;38.47;25.23;;;;;;;6.52;100.00;100438.38;4971710;28;20219;-77
2021/11/05 04:59:31;;;;;;;41.80;25.40;;;;;;;6.59;100.00;100427.13;4967177;28;20296;-78
2021/11/05 05:01:58;;;;;;;41.57;25.23;;;;;;;6.69;100.00;100436.63;4969815;28;20521;-77
2021/11/05 05:04:24;;;;;;;37.03;24.00;;;;;;;6.69;100.00;100440.94;4979366;28;20287;-78
2021/11/05 05:06:51;;;;;;;37.30;23.70;;;;;;;6.68;100.00;100445.28;4970408;28;20628;-78
2021/11/05 05:09:17;;;;;;;39.43;23.67;;;;;;;6.81;100.00;100455.59;4974510;28;20819;-78
2021/11/05 05:11:46;;;;;;;30.53;22.87;;;;;;;6.78;100.00;100464.28;4971688;28;20231;-77
2021/11/05 05:14:14;;;;;;;33.57;23.07;;;;;;;6.80;100.00;100479.81;4968290;28;20198;-77
2021/11/05 05:16:41;;;;;;;44.40;24.80;;;;;;;6.85;100.00;100483.28;4967302;28;20219;-78
2021/11/05 05:19:07;;;;;;;36.33;22.87;;;;;;;6.82;100.00;100512.69;4968970;28;20271;-79
2021/11/05 05:21:33;;;;;;;35.40;23.67;;;;;;;6.81;100.00;100518.72;4972957;28;20301;-78
2021/11/05 05:24:00;;;;;;;33.80;22.50;;;;;;;6.75;100.00;100518.75;4968008;28;20293;-78
2021/11/05 05:26:26;;;;;;;31.70;22.33;;;;;;;6.69;100.00;100532.59;4973818;28;20214;-77
2021/11/05 05:28:53;;;;;;;38.40;23.67;;;;;;;6.63;100.00;100534.34;4967730;28;20215;-78
2021/11/05 05:31:20;;;;;;;36.80;22.97;;;;;;;6.66;100.00;100521.34;4967577;28;20212;-77
2021/11/05 05:33:47;;;;;;;35.43;23.30;;;;;;;6.58;100.00;100523.97;4967312;28;20234;-78
2021/11/05 05:36:13;;;;;;;38.90;22.33;;;;;;;6.68;100.00;100533.47;4969172;28;20671;-77
2021/11/05 05:38:40;;;;;;;38.00;22.17;;;;;;;6.56;100.00;100530.88;4967576;28;20251;-78
2021/11/05 05:41:06;;;;;;;32.40;21.63;;;;;;;6.65;100.00;100532.59;4967720;28;20229;-76
2021/11/05 05:43:33;;;;;;;29.60;20.53;;;;;;;6.64;100.00;100547.31;4966762;28;20298;-77
2021/11/05 05:45:59;;;;;;;32.47;22.27;;;;;;;6.62;100.00;100543.84;4968042;28;20226;-79
2021/11/05 05:48:27;;;;;;;34.33;21.70;;;;;;;6.60;100.00;100540.41;4972511;28;20225;-76
2021/11/05 05:50:53;;;;;;;37.27;23.23;;;;;;;6.54;100.00;100541.25;4967436;28;20216;-78
2021/11/05 05:53:21;;;;;;;34.67;22.93;;;;;;;6.69;100.00;100547.28;4967198;28;20239;-78
2021/11/05 05:55:47;;;;;;;35.43;22.27;;;;;;;6.63;100.00;100555.94;4969870;28;20541;-78
2021/11/05 05:58:13;;;;;;;33.70;20.60;;;;;;;6.57;100.00;100561.13;4969399;28;20211;-78
2021/11/05 06:00:40;;;;;;;34.30;21.80;;;;;;;6.59;100.00;100556.81;4971379;28;20266;-78
2021/11/05 06:03:06;;;;;;;34.93;20.43;;;;;;;6.65;100.00;100556.81;4967973;28;20855;-78
2021/11/05 06:05:34;;;;;;;28.03;21.13;;;;;;;6.72;100.00;100566.31;4966278;28;20713;-77
2021/11/05 06:08:00;;;;;;;30.33;20.50;;;;;;;6.80;100.00;100581.88;4974723;28;20272;-78
2021/11/05 06:10:26;;;;;;;28.60;20.67;;;;;;;6.63;100.00;100600.03;4967398;28;20215;-76
2021/11/05 06:12:53;;;;;;;28.20;19.13;;;;;;;6.69;100.00;100601.78;4966675;28;20239;-78
2021/11/05 06:15:19;;;;;;;31.83;20.73;;;;;;;6.76;100.00;100596.56;4974639;28;20207;-78
2021/11/05 06:17:46;;;;;;;28.90;19.57;;;;;;;6.75;100.00;100613.00;4966895;28;20216;-79
2021/11/05 06:20:12;;;;;;;31.10;20.00;;;;;;;6.66;100.00;100623.41;4968563;28;20899;-78
2021/11/05 06:22:40;;;;;;;22.53;19.03;;;;;;;6.68;100.00;100629.44;4970736;28;20231;-77
2021/11/05 06:25:07;;;;;;;35.93;20.10;;;;;;;6.71;100.00;100633.75;4968908;28;20278;-79
2021/11/05 06:27:33;;;;;;;32.73;19.57;;;;;;;6.84;100.00;100629.41;4974622;28;20730;-79
2021/11/05 06:30:00;;;;;;;23.40;18.63;;;;;;;6.88;100.00;100633.75;4966302;28;20475;-78
2021/11/05 06:32:26;;;;;;;24.20;19.27;;;;;;;6.73;100.00;100651.03;4967698;28;20234;-79
2021/11/05 06:34:53;;;;;;;29.00;19.97;;;;;;;6.78;100.00;100652.78;4969302;28;20222;-77
2021/11/05 06:37:19;;;;;;;34.30;22.00;;;;;;;6.75;100.00;100654.50;4966368;28;20222;-78
2021/11/05 06:39:47;;;;;;;31.80;20.80;;;;;;;6.74;100.00;100651.94;4969889;28;20266;-78
2021/11/05 06:42:20;;;;;;;28.37;20.80;;;;;;;6.80;100.00;100648.44;4973282;28;20233;-78
2021/11/05 06:44:46;;;;;;;34.47;20.83;;;;;;;6.74;100.00;100659.72;4970218;28;20280;-78
2021/11/05 06:47:12;;;;;;;32.60;21.93;;;;;;;6.75;100.00;100646.72;4966684;28;20296;-78
2021/11/05 06:49:39;;;;;;;35.37;21.27;;;;;;;6.70;100.00;100648.47;4967835;28;20216;-77
2021/11/05 06:52:06;;;;;;;31.87;20.87;;;;;;;6.68;100.00;100637.22;4966662;28;20609;-78
2021/11/05 06:54:34;;;;;;;35.60;21.13;;;;;;;6.67;100.00;100621.66;4970599;28;20215;-78
2021/11/05 06:57:03;;;;;;;40.37;21.93;;;;;;;6.72;100.00;100618.19;4971243;28;20262;-80
2021/11/05 06:59:30;;;;;;;35.73;22.97;;;;;;;6.75;100.00;100612.13;4969258;28;20591;-80
2021/11/05 07:01:56;;;;;;;36.33;22.33;;;;;;;6.76;100.00;100614.75;4971516;28;20290;-79
2021/11/05 07:04:22;;;;;;;37.87;22.17;;;;;;;6.80;100.00;100620.78;4970920;28;20382;-80
2021/11/05 07:06:49;;;;;;;39.20;21.67;;;;;;;6.82;100.00;100625.97;4969712;28;20215;-78
2021/11/05 07:09:17;;;;;;;36.83;21.73;;;;;;;6.89;100.00;100632.88;4970248;28;20220;-78
2021/11/05 07:11:45;;;;;;;36.60;21.63;;;;;;;6.87;100.00;100634.63;4970277;28;20314;-79
2021/11/05 07:14:13;;;;;;;37.17;22.13;;;;;;;6.81;100.00;100651.03;4971440;28;20207;-80
2021/11/05 07:16:40;;;;;;;36.10;23.20;;;;;;;6.82;100.00;100644.13;4971429;28;20728;-80
2021/11/05 07:19:07;;;;;;;36.33;22.27;;;;;;;6.89;100.00;100648.44;4968710;28;20640;-78
2021/11/05 07:21:34;;;;;;;32.23;22.40;;;;;;;7.01;100.00;100661.41;4969241;28;20427;-80
2021/11/05 07:24:02;;;;;;;34.80;21.60;;;;;;;6.99;100.00;100670.94;4968342;28;20299;-79
2021/11/05 07:26:33;;;;;;;35.13;21.10;;;;;;;7.05;100.00;100688.25;4969245;28;20218;-79
2021/11/05 07:29:01;;;;;;;35.13;21.90;;;;;;;7.07;100.00;100702.94;4968265;28;20331;-79
2021/11/05 07:31:29;;;;;;;36.23;22.07;;;;;;;7.13;100.00;100710.72;4967580;28;20748;-78
2021/11/05 07:33:56;;;;;;;31.43;20.70;;;;;;;7.13;100.00;100715.06;4969749;28;20243;-77
2021/11/05 07:36:22;;;;;;;30.67;21.10;;;;;;;7.15;100.00;100721.09;4971965;28;20221;-77
2021/11/05 07:38:49;;;;;;;30.03;21.17;;;;;;;7.21;100.00;100723.69;4970529;28;20257;-78
2021/11/05 07:41:15;;;;;;;28.23;19.27;;;;;;;7.07;100.00;100735.81;4970918;28;20206;-78
2021/11/05 07:43:41;;;;;;;29.40;18.43;;;;;;;7.04;100.00;100734.09;4980960;28;20225;-78
2021/11/05 07:46:08;;;;;;;30.97;20.03;;;;;;;7.00;100.00;100734.06;4991540;28;20231;-79
2021/11/05 07:48:35;;;;;;;31.17;21.13;;;;;;;7.02;100.00;100729.78;4983816;28;20215;-77
2021/11/05 07:51:02;;;;;;;28.63;20.80;;;;;;;7.06;100.00;100724.59;4981563;28;20213;-79
2021/11/05 07:53:28;;;;;;;33.23;20.47;;;;;;;7.08;100.00;100724.59;4973350;28;20256;-77
2021/11/05 07:55:54;;;;;;;28.47;21.63;;;;;;;7.02;100.00;100727.19;4971230;28;20721;-77
2021/11/05 07:58:21;;;;;;;32.13;21.17;;;;;;;6.97;100.00;100725.44;4969265;28;20650;-77
2021/11/05 08:00:48;;;;;;;37.13;21.37;;;;;;;7.03;100.00;100719.38;4967544;28;20522;-77
2021/11/05 08:03:15;;;;;;;37.97;22.07;;;;;;;6.91;100.00;100722.84;4967688;28;20231;-77
2021/11/05 08:05:44;;;;;;;36.83;20.90;;;;;;;6.97;100.00;100719.38;4969941;28;20242;-78
2021/11/05 08:08:10;;;;;;;39.17;23.03;;;;;;;6.98;100.00;100718.53;4969284;28;20280;-77
2021/11/05 08:10:37;;;;;;;31.93;21.63;;;;;;;7.09;100.00;100715.91;4968002;28;20557;-76
2021/11/05 08:13:03;;;;;;;40.57;22.77;;;;;;;6.90;100.00;100718.53;4972767;28;20266;-77
2021/11/05 08:15:30;;;;;;;40.67;22.53;;;;;;;6.98;100.00;100708.16;4970525;28;20212;-78
2021/11/05 08:17:56;;;;;;;37.87;22.10;;;;;;;7.12;100.00;100714.19;4974231;28;20211;-78
2021/11/05 08:20:22;;;;;;;35.45;25.38;;;;;;;7.09;100.00;100727.16;4973406;28;20450;-77
2021/11/05 08:22:50;;;;;;;35.95;26.25;;;;;;;7.29;100.00;100739.28;4977075;28;20471;-78
2021/11/05 08:25:18;;;;;;;28.30;20.20;;;;;;;7.33;100.00;100759.19;4973443;28;20272;-77
2021/11/05 08:27:45;;;;;;;27.23;18.90;;;;;;;7.33;100.00;100779.94;4979826;28;20606;-78
2021/11/05 08:30:16;;;;;;;26.80;19.77;;;;;;;7.29;100.00;100791.22;4969476;28;20678;-78
2021/11/05 08:32:43;;;;;;;34.03;24.42;;;;;;;7.28;100.00;100795.53;4970107;28;21202;-78
2021/11/05 08:35:09;;;;;;;27.33;19.83;;;;;;;7.23;100.00;100801.59;4968920;28;20215;-78
2021/11/05 08:37:36;;;;;;;26.00;18.87;;;;;;;7.32;100.00;100801.59;4971185;28;20231;-79
2021/11/05 08:40:05;;;;;;;26.40;18.30;;;;;;;7.46;100.00;100815.44;4971316;28;20211;-78
2021/11/05 08:42:32;;;;;;;23.93;17.77;;;;;;;7.42;100.00;100818.91;4972051;28;20231;-78
2021/11/05 08:44:58;;;;;;;23.40;17.07;;;;;;;7.45;100.00;100816.34;4971273;28;20227;-79
2021/11/05 08:47:25;;;;;;;25.87;18.43;;;;;;;7.54;100.00;100828.44;4974324;28;20213;-78
2021/11/05 08:49:53;;;;;;;21.77;17.30;;;;;;;7.47;100.00;100837.97;4976813;28;20211;-78
2021/11/05 08:52:21;;;;;;;32.30;19.30;;;;;;;7.44;100.00;100834.50;4980265;28;20289;-79
2021/11/05 08:54:47;;;;;;;25.00;17.13;;;;;;;7.48;100.00;100839.69;4979484;28;20208;-77
2021/11/05 08:57:15;;;;;;;22.30;17.63;;;;;;;7.46;100.00;100828.44;4975522;28;20630;-78
2021/11/05 08:59:42;;;;;;;27.00;17.20;;;;;;;7.42;100.00;100823.25;4971828;28;20278;-77
2021/11/05 09:02:08;;;;;;;21.57;15.73;;;;;;;7.47;100.00;100816.31;4968648;28;20229;-78
2021/11/05 09:04:35;;;;;;;21.17;15.40;;;;;;;7.41;100.00;100811.13;4972624;28;20686;-78
2021/11/05 09:07:01;;;;;;;22.43;16.07;;;;;;;7.46;100.00;100804.19;4971705;28;20637;-77
2021/11/05 09:09:27;;;;;;;19.20;14.83;;;;;;;7.44;100.00;100808.53;4967844;28;20258;-79
2021/11/05 09:11:54;;;;;;;18.27;15.00;;;;;;;7.40;100.00;100812.84;4969812;28;20290;-78
2021/11/05 09:14:23;;;;;;;16.47;13.80;;;;;;;7.46;100.00;100812.84;4975752;28;20768;-79
2021/11/05 09:16:50;;;;;;;17.90;13.80;;;;;;;7.50;100.00;100826.72;4979473;28;20264;-78
2021/11/05 09:19:16;;;;;;;18.30;13.60;;;;;;;7.56;100.00;100831.91;4968480;28;20274;-79
2021/11/05 09:21:42;;;;;;;18.27;12.53;;;;;;;7.51;100.00;100837.09;4968906;28;20233;-78
2021/11/05 09:24:09;;;;;;;15.90;12.17;;;;;;;7.54;100.00;100841.44;4974880;28;20211;-78
2021/11/05 09:26:35;;;;;;;14.77;12.50;;;;;;;7.64;100.00;100842.28;4970385;28;20239;-78
2021/11/05 09:29:01;;;;;;;15.27;13.13;;;;;;;7.65;100.00;100854.41;4969956;28;20247;-79
2021/11/05 09:31:29;;;;;;;13.87;11.93;;;;;;;7.61;100.00;100863.06;4974854;28;20224;-78
2021/11/05 09:33:55;;;;;;;14.27;11.77;;;;;;;7.70;100.00;100869.13;4969100;28;20912;-79
2021/11/05 09:36:22;;;;;;;13.27;11.73;;;;;;;7.73;100.00;100884.75;4975694;28;20210;-79
2021/11/05 09:38:48;;;;;;;10.57;9.57;;;;;;;7.88;100.00;100891.66;4968174;28;20218;-78
2021/11/05 09:41:16;;;;;;;10.77;9.70;;;;;;;8.03;100.00;100916.78;4979702;28;20250;-79
2021/11/05 09:43:43;;;;;;;10.07;9.07;;;;;;;8.10;100.00;100928.03;4972867;28;20331;-79
2021/11/05 09:46:10;;;;;;;9.80;8.80;;;;;;;8.11;100.00;100964.44;4969265;28;20262;-78
2021/11/05 09:48:38;;;;;;;9.07;8.17;;;;;;;8.07;99.91;100993.03;4972959;28;20214;-78
2021/11/05 09:51:05;;;;;;;8.30;7.50;;;;;;;8.04;99.60;101004.28;4969666;28;20215;-78
2021/11/05 09:53:35;;;;;;;9.40;8.43;;;;;;;8.05;99.42;101012.97;4972737;28;20242;-78
2021/11/05 09:56:03;;;;;;;8.87;7.97;;;;;;;8.04;98.98;101027.69;4969811;28;20210;-78
2021/11/05 09:58:30;;;;;;;9.07;8.17;;;;;;;8.12;99.89;101022.50;4973384;28;20216;-78
2021/11/05 10:00:56;;;;;;;9.43;8.53;;;;;;;8.13;100.00;101027.72;4970380;28;20290;-78
2021/11/05 10:03:22;;;;;;;11.03;10.13;;;;;;;8.08;99.79;101025.97;4968016;28;20658;-78
2021/11/05 10:05:53;;;;;;;14.37;10.23;;;;;;;8.13;99.81;101024.25;4968026;28;20821;-78
2021/11/05 10:08:26;;;;;;;10.10;8.73;;;;;;;8.08;99.63;101025.97;4974320;28;20279;-77
2021/11/05 10:10:53;;;;;;;12.83;10.33;;;;;;;8.09;99.43;101040.72;4969314;28;20215;-78
2021/11/05 10:13:23;;;;;;;11.67;10.43;;;;;;;8.07;99.34;101042.44;4976387;28;20733;-78
2021/11/05 10:15:51;;;;;;;12.23;10.33;;;;;;;8.21;99.57;101040.72;4968779;28;20294;-78
2021/11/05 10:18:19;;;;;;;13.60;10.97;;;;;;;8.13;99.43;101064.09;4974296;28;20211;-77
2021/11/05 10:20:48;;;;;;;12.00;10.53;;;;;;;8.13;99.36;101037.25;4977868;28;20207;-78
2021/11/05 10:23:17;;;;;;;12.83;11.03;;;;;;;8.12;99.75;101038.97;4967651;28;20236;-78
2021/11/05 10:25:47;;;;;;;11.00;9.90;;;;;;;8.13;100.00;101029.44;4971363;28;20706;-79
2021/11/05 10:28:17;;;;;;;13.10;11.80;;;;;;;8.25;100.00;101036.38;4971536;28;20326;-79
2021/11/05 10:31:01;;;;;;;14.17;11.97;;;;;;;8.28;100.00;101036.38;4971176;28;20208;-79
2021/11/05 10:33:30;;;;;;;15.50;11.13;;;;;;;8.34;99.80;101029.47;4968242;28;20619;-78
2021/11/05 10:35:59;;;;;;;12.43;11.23;;;;;;;8.38;99.55;101043.31;4972817;28;20243;-78
2021/11/05 10:38:28;;;;;;;13.17;11.17;;;;;;;8.44;99.13;101063.28;4972755;28;20572;-78
2021/11/05 10:40:57;;;;;;;17.90;11.17;;;;;;;8.57;99.29;101054.63;4967302;28;21344;-79
2021/11/05 10:43:35;;;;;;;18.37;11.17;;;;;;;8.70;99.40;101061.53;4973751;28;20881;-78
2021/11/05 10:46:02;;;;;;;14.30;9.87;;;;;;;8.71;98.38;101091.03;4974708;28;20223;-79
2021/11/05 10:48:30;;;;;;;10.93;9.87;;;;;;;8.70;97.50;101110.09;4971974;28;20219;-77
2021/11/05 10:50:59;;;;;;;10.20;9.20;;;;;;;8.59;97.84;101120.53;4969964;28;21338;-79
2021/11/05 10:53:31;;;;;;;13.00;10.97;;;;;;;8.70;97.88;101121.41;4972348;28;20235;-78
2021/11/05 10:56:00;;;;;;;11.00;9.70;;;;;;;8.69;98.16;101103.19;4966944;28;20274;-78
2021/11/05 10:58:28;;;;;;;12.00;9.90;;;;;;;8.68;97.71;101127.47;4972048;28;20226;-77
2021/11/05 11:00:58;;;;;;;11.37;9.17;;;;;;;8.73;97.64;101134.41;4972503;28;20749;-79
2021/11/05 11:03:31;;;;;;;9.83;8.57;;;;;;;8.79;97.98;101127.47;4978005;28;20231;-79
2021/11/05 11:06:00;;;;;;;12.27;8.43;;;;;;;8.63;97.07;101153.50;4971760;28;20234;-78
2021/11/05 11:08:30;;;;;;;10.20;7.80;;;;;;;8.68;96.10;101169.09;4972097;28;20223;-79
2021/11/05 11:10:59;;;;;;;10.93;7.53;;;;;;;8.65;96.46;101183.00;4969633;28;20222;-78